createdAt,value
2019-02-14T00:00:35.283Z,99.90
2019-02-14T00:03:04.857Z,99.90
2019-02-14T00:05:34.479Z,99.90
2019-02-14T00:08:03.845Z,99.90
2019-02-14T00:10:33.221Z,99.90
2019-02-14T00:13:02.556Z,99.90
2019-02-14T00:15:31.893Z,99.90
2019-02-14T00:18:01.227Z,99.90
2019-02-14T00:20:30.579Z,99.90
2019-02-14T00:22:59.895Z,99.90
2019-02-14T00:25:29.138Z,99.90
2019-02-14T00:27:58.934Z,99.90
2019-02-14T00:30:28.248Z,99.90
2019-02-14T00:32:57.567Z,99.90
2019-02-14T00:35:26.911Z,99.90
2019-02-14T00:37:58.167Z,99.90
2019-02-14T00:40:27.460Z,99.90
2019-02-14T00:42:56.773Z,99.90
2019-02-14T00:45:26.074Z,99.90
2019-02-14T00:47:55.404Z,99.90
2019-02-14T00:50:24.711Z,99.90
2019-02-14T00:52:54.045Z,99.90
2019-02-14T00:55:23.344Z,99.90
2019-02-14T00:57:53.206Z,99.90
2019-02-14T01:00:22.944Z,99.90
2019-02-14T01:02:52.244Z,99.90
2019-02-14T01:05:21.616Z,99.90
2019-02-14T01:07:50.945Z,99.90
2019-02-14T01:10:20.259Z,99.90
2019-02-14T01:12:49.639Z,99.90
2019-02-14T01:15:22.463Z,99.90
2019-02-14T01:17:51.796Z,99.90
2019-02-14T01:20:21.478Z,99.90
2019-02-14T01:22:50.774Z,99.90
2019-02-14T01:25:23.031Z,99.90
2019-02-14T01:27:52.341Z,99.90
2019-02-14T01:30:24.118Z,99.90
2019-02-14T01:32:53.873Z,99.90
2019-02-14T01:35:23.499Z,99.90
2019-02-14T01:37:52.809Z,99.90
2019-02-14T01:40:22.655Z,99.90
2019-02-14T01:42:52.345Z,99.90
2019-02-14T01:45:23.081Z,99.90
2019-02-14T01:47:52.391Z,99.90
2019-02-14T01:50:21.708Z,99.90
2019-02-14T01:52:51.075Z,99.90
2019-02-14T01:55:20.393Z,99.90
2019-02-14T01:57:49.724Z,99.90
2019-02-14T02:00:19.066Z,99.90
2019-02-14T02:02:48.699Z,99.90
2019-02-14T02:05:18.015Z,99.90
2019-02-14T02:07:49.111Z,99.90
2019-02-14T02:10:18.722Z,99.90
2019-02-14T02:12:48.060Z,99.90
2019-02-14T02:15:17.376Z,99.90
2019-02-14T02:17:46.660Z,99.90
2019-02-14T02:20:16.548Z,99.90
2019-02-14T02:22:46.145Z,99.90
2019-02-14T02:25:15.521Z,99.90
2019-02-14T02:27:45.191Z,99.90
2019-02-14T02:30:15.113Z,99.90
2019-02-14T02:32:44.437Z,99.90
2019-02-14T02:35:13.783Z,99.90
2019-02-14T02:37:43.966Z,99.90
2019-02-14T02:40:16.076Z,99.90
2019-02-14T02:42:45.496Z,99.90
2019-02-14T02:45:14.866Z,99.90
2019-02-14T02:47:45.440Z,99.90
2019-02-14T02:50:14.728Z,99.90
2019-02-14T02:52:44.153Z,99.90
2019-02-14T02:55:16.162Z,99.90
2019-02-14T02:57:45.937Z,99.90
2019-02-14T03:00:17.280Z,99.90
2019-02-14T03:02:47.069Z,99.90
2019-02-14T03:05:17.522Z,99.90
2019-02-14T03:07:46.856Z,99.90
2019-02-14T03:10:16.604Z,99.90
2019-02-14T03:12:45.985Z,99.90
2019-02-14T03:15:15.705Z,99.90
2019-02-14T03:17:45.159Z,99.90
2019-02-14T03:20:14.582Z,99.90
2019-02-14T03:22:43.916Z,99.90
2019-02-14T03:25:15.215Z,99.90
2019-02-14T03:27:44.513Z,99.90
2019-02-14T03:30:14.626Z,99.90
2019-02-14T03:32:44.573Z,99.90
2019-02-14T03:35:13.972Z,99.90
2019-02-14T03:37:44.044Z,99.90
2019-02-14T03:40:13.497Z,99.90
2019-02-14T03:42:43.176Z,99.90
2019-02-14T03:45:15.169Z,99.90
2019-02-14T03:47:44.551Z,99.90
2019-02-14T03:50:14.070Z,99.90
2019-02-14T03:52:43.876Z,99.90
2019-02-14T03:55:13.333Z,99.90
2019-02-14T03:57:42.621Z,99.90
2019-02-14T04:00:13.994Z,99.90
2019-02-14T04:02:43.277Z,99.90
2019-02-14T04:05:12.814Z,99.90
2019-02-14T04:07:42.144Z,99.90
2019-02-14T04:10:12.553Z,99.90
2019-02-14T04:12:41.915Z,99.90
2019-02-14T04:15:13.236Z,99.90
2019-02-14T04:17:42.845Z,99.90
2019-02-14T04:20:12.401Z,99.90
2019-02-14T04:22:42.136Z,99.90
2019-02-14T04:25:11.582Z,99.90
2019-02-14T04:27:41.056Z,99.90
2019-02-14T04:30:11.444Z,99.90
2019-02-14T04:32:40.765Z,99.90
2019-02-14T04:35:11.428Z,99.90
2019-02-14T04:37:40.769Z,99.90
2019-02-14T04:40:11.712Z,99.90
2019-02-14T04:42:42.615Z,99.90
2019-02-14T04:45:12.525Z,99.90
2019-02-14T04:47:41.924Z,99.90
2019-02-14T04:50:11.623Z,99.90
2019-02-14T04:52:41.013Z,99.90
2019-02-14T04:55:12.572Z,99.90
2019-02-14T04:57:42.043Z,99.90
2019-02-14T05:00:12.705Z,99.90
2019-02-14T05:02:42.062Z,99.90
2019-02-14T05:05:11.561Z,99.90
2019-02-14T05:07:40.912Z,99.90
2019-02-14T05:10:10.462Z,99.90
2019-02-14T05:12:41.301Z,99.90
2019-02-14T05:15:11.277Z,99.90
2019-02-14T05:17:40.637Z,99.90
2019-02-14T05:20:10.202Z,99.90
2019-02-14T05:22:40.941Z,99.90
2019-02-14T05:25:10.364Z,99.90
2019-02-14T05:27:40.169Z,99.90
2019-02-14T05:30:11.240Z,99.90
2019-02-14T05:32:40.896Z,99.90
2019-02-14T05:35:10.605Z,99.90
2019-02-14T05:37:40.321Z,99.90
2019-02-14T05:40:10.039Z,99.90
2019-02-14T05:42:39.378Z,99.90
2019-02-14T05:45:10.448Z,99.90
2019-02-14T05:47:40.917Z,99.90
2019-02-14T05:50:10.420Z,99.90
2019-02-14T05:52:39.794Z,99.90
2019-02-14T05:55:10.084Z,99.90
2019-02-14T05:57:39.859Z,99.90
2019-02-14T06:00:11.359Z,99.90
2019-02-14T06:02:42.288Z,99.90
2019-02-14T06:05:11.666Z,99.90
2019-02-14T06:07:41.012Z,99.90
2019-02-14T06:10:11.260Z,99.90
2019-02-14T06:12:40.555Z,99.90
2019-02-14T06:15:10.610Z,99.90
2019-02-14T06:17:39.961Z,99.90
2019-02-14T06:20:09.735Z,99.90
2019-02-14T06:22:39.088Z,99.90
2019-02-14T06:25:08.597Z,99.90
2019-02-14T06:27:37.998Z,99.90
2019-02-14T06:30:09.566Z,99.90
2019-02-14T06:32:39.265Z,99.90
2019-02-14T06:35:09.542Z,99.90
2019-02-14T06:37:38.847Z,99.90
2019-02-14T06:40:09.805Z,99.90
2019-02-14T06:42:39.125Z,99.90
2019-02-14T06:45:10.527Z,99.90
2019-02-14T06:47:39.860Z,99.90
2019-02-14T06:50:09.713Z,99.90
2019-02-14T06:52:40.402Z,99.90
2019-02-14T06:55:09.980Z,99.90
2019-02-14T06:57:39.242Z,99.90
2019-02-14T07:00:10.356Z,99.90
2019-02-14T07:02:39.664Z,99.90
2019-02-14T07:05:09.473Z,99.90
2019-02-14T07:07:38.847Z,99.90
2019-02-14T07:10:08.683Z,99.90
2019-02-14T07:12:38.031Z,99.90
2019-02-14T07:15:08.818Z,99.90
2019-02-14T07:17:38.117Z,99.90
2019-02-14T07:20:09.975Z,99.90
2019-02-14T07:22:39.388Z,99.90
2019-02-14T07:25:09.512Z,99.90
2019-02-14T07:27:38.838Z,99.90
2019-02-14T07:30:11.721Z,99.90
2019-02-14T07:32:41.089Z,99.90
2019-02-14T07:35:11.098Z,99.90
2019-02-14T07:37:40.453Z,99.90
2019-02-14T07:40:11.757Z,99.90
2019-02-14T07:42:41.112Z,99.90
2019-02-14T07:46:09.743Z,99.90
2019-02-14T07:48:39.020Z,99.90
2019-02-14T07:51:08.369Z,99.90
2019-02-14T07:53:37.740Z,99.90
2019-02-14T07:56:07.064Z,99.90
2019-02-14T07:58:36.711Z,99.90
2019-02-14T08:01:06.332Z,99.90
2019-02-14T08:03:35.636Z,99.90
2019-02-14T08:06:05.035Z,99.90
2019-02-14T08:08:34.424Z,99.90
2019-02-14T08:11:03.754Z,99.90
2019-02-14T08:13:33.041Z,99.90
2019-02-14T08:16:02.407Z,99.90
2019-02-14T08:18:31.777Z,99.90
2019-02-14T08:21:01.207Z,99.90
2019-02-14T08:23:30.761Z,99.90
2019-02-14T08:26:00.141Z,99.90
2019-02-14T08:28:29.554Z,99.90
2019-02-14T08:30:58.897Z,99.90
2019-02-14T08:33:28.229Z,99.90
2019-02-14T08:35:57.564Z,99.90
2019-02-14T08:38:26.988Z,99.90
2019-02-14T08:41:15.350Z,99.90
2019-02-14T08:43:44.671Z,99.90
2019-02-14T08:46:14.015Z,99.90
2019-02-14T08:48:43.324Z,99.90
2019-02-14T08:51:12.645Z,99.90
2019-02-14T08:53:41.937Z,99.90
2019-02-14T08:56:11.238Z,99.90
2019-02-14T08:58:40.543Z,99.90
2019-02-14T09:01:10.213Z,99.90
2019-02-14T09:03:42.072Z,99.90
2019-02-14T09:06:11.455Z,99.90
2019-02-14T09:08:41.029Z,99.90
2019-02-14T09:11:10.362Z,99.90
2019-02-14T09:13:40.040Z,99.90
2019-02-14T09:16:09.389Z,99.90
2019-02-14T09:18:38.690Z,99.90
2019-02-14T09:21:10.305Z,99.90
2019-02-14T09:23:39.592Z,99.90
2019-02-14T09:26:08.996Z,99.90
2019-02-14T09:28:38.369Z,99.90
2019-02-14T09:31:07.637Z,99.90
2019-02-14T09:33:37.009Z,99.90
2019-02-14T09:36:06.348Z,99.90
2019-02-14T09:38:35.681Z,99.90
2019-02-14T09:41:05.051Z,99.90
2019-02-14T09:43:34.377Z,99.90
2019-02-14T09:46:03.710Z,99.90
2019-02-14T09:48:33.157Z,99.90
2019-02-14T09:51:02.473Z,99.90
2019-02-14T09:53:31.708Z,99.90
2019-02-14T09:56:01.460Z,99.90
2019-02-14T09:58:30.884Z,99.90
2019-02-14T10:01:00.329Z,99.90
2019-02-14T10:03:29.748Z,99.90
2019-02-14T10:05:59.157Z,99.90
2019-02-14T10:08:28.472Z,99.90
2019-02-14T10:10:57.836Z,99.90
2019-02-14T10:13:27.185Z,99.90
2019-02-14T10:15:56.508Z,99.90
2019-02-14T10:18:26.083Z,99.90
2019-02-14T10:20:55.509Z,99.90
2019-02-14T10:23:24.920Z,99.90
2019-02-14T10:25:54.218Z,99.90
2019-02-14T10:28:23.830Z,99.90
2019-02-14T10:30:53.172Z,99.90
2019-02-14T10:33:22.609Z,99.90
2019-02-14T10:35:51.960Z,99.90
2019-02-14T10:38:22.677Z,98.80
2019-02-14T10:40:52.316Z,96.60
2019-02-14T10:43:21.778Z,99.00
2019-02-14T10:45:51.109Z,97.80
2019-02-14T10:48:20.450Z,96.40
2019-02-14T10:50:49.789Z,96.60
2019-02-14T10:53:19.176Z,95.40
2019-02-14T10:55:48.475Z,95.10
2019-02-14T10:58:17.809Z,92.60
2019-02-14T11:00:47.176Z,91.10
2019-02-14T11:03:16.526Z,88.40
2019-02-14T11:05:45.920Z,86.60
2019-02-14T11:08:15.235Z,85.90
2019-02-14T11:10:44.617Z,86.60
2019-02-14T11:13:13.934Z,77.90
2019-02-14T11:15:43.229Z,81.70
2019-02-14T11:18:12.619Z,80.10
2019-02-14T11:20:42.107Z,79.20
2019-02-14T11:23:11.827Z,76.00
2019-02-14T11:25:41.178Z,73.20
2019-02-14T11:28:10.471Z,65.70
2019-02-14T11:30:39.806Z,63.00
2019-02-14T11:33:09.914Z,60.90
2019-02-14T11:35:39.309Z,57.70
2019-02-14T11:38:08.630Z,57.40
2019-02-14T11:40:38.028Z,54.60
2019-02-14T11:43:07.361Z,54.90
2019-02-14T11:45:36.679Z,51.10
2019-02-14T11:48:06.413Z,50.80
2019-02-14T11:50:35.734Z,50.10
2019-02-14T11:53:13.863Z,50.30
2019-02-14T11:55:36.178Z,47.90
2019-02-14T11:58:05.482Z,48.50
2019-02-14T12:00:34.763Z,46.70
2019-02-14T12:03:04.132Z,45.40
2019-02-14T12:05:33.451Z,45.50
2019-02-14T12:08:03.440Z,45.50
2019-02-14T12:10:32.748Z,44.20
2019-02-14T12:13:02.150Z,43.00
2019-02-14T12:15:31.556Z,43.30
2019-02-14T12:18:01.149Z,42.20
2019-02-14T12:20:30.482Z,40.20
2019-02-14T12:22:59.799Z,40.60
2019-02-14T12:25:29.196Z,40.70
2019-02-14T12:27:58.595Z,42.20
2019-02-14T12:30:27.940Z,41.70
2019-02-14T12:32:57.293Z,41.40
2019-02-14T12:35:26.624Z,38.50
2019-02-14T12:37:56.004Z,43.50
2019-02-14T12:40:25.500Z,48.00
2019-02-14T12:42:54.820Z,49.10
2019-02-14T12:45:26.011Z,49.40
2019-02-14T12:47:55.376Z,49.40
2019-02-14T12:50:24.752Z,48.40
2019-02-14T12:52:54.044Z,49.20
2019-02-14T12:55:23.360Z,49.70
2019-02-14T12:57:52.753Z,48.80
2019-02-14T13:00:22.891Z,47.50
2019-02-14T13:02:52.200Z,47.80
2019-02-14T13:05:21.552Z,48.00
2019-02-14T13:07:50.943Z,46.40
2019-02-14T13:10:20.356Z,48.40
2019-02-14T13:12:49.774Z,48.40
2019-02-14T13:15:20.697Z,45.40
2019-02-14T13:17:50.038Z,45.40
2019-02-14T13:20:19.773Z,44.60
2019-02-14T13:22:49.295Z,43.40
2019-02-14T13:25:18.664Z,44.20
2019-02-14T13:27:48.044Z,44.40
2019-02-14T13:30:20.051Z,44.50
2019-02-14T13:32:49.375Z,44.70
2019-02-14T13:35:18.745Z,45.00
2019-02-14T13:37:48.143Z,45.20
2019-02-14T13:40:17.825Z,46.10
2019-02-14T13:42:48.409Z,43.30
2019-02-14T13:45:19.844Z,45.20
2019-02-14T13:47:49.497Z,46.50
2019-02-14T13:50:18.910Z,45.70
2019-02-14T13:52:48.265Z,45.40
2019-02-14T13:55:17.584Z,46.00
2019-02-14T13:57:47.084Z,48.40
2019-02-14T14:00:23.821Z,46.50
2019-02-14T14:02:53.192Z,46.70
2019-02-14T14:05:22.565Z,47.20
2019-02-14T14:07:52.029Z,47.40
2019-02-14T14:10:21.667Z,47.20
2019-02-14T14:12:51.061Z,46.80
2019-02-14T14:15:20.713Z,47.60
2019-02-14T14:17:50.117Z,48.80
2019-02-14T14:20:19.432Z,49.10
2019-02-14T14:22:48.796Z,47.10
2019-02-14T14:25:18.160Z,47.60
2019-02-14T14:27:47.504Z,47.00
2019-02-14T14:30:16.799Z,47.80
2019-02-14T14:32:46.175Z,47.00
2019-02-14T14:35:15.506Z,47.60
2019-02-14T14:37:44.818Z,46.40
2019-02-14T14:40:14.309Z,47.90
2019-02-14T14:43:08.644Z,46.00
2019-02-14T14:46:03.657Z,46.50
2019-02-14T14:48:37.259Z,47.10
2019-02-14T14:51:06.632Z,51.40
2019-02-14T14:53:35.966Z,55.10
2019-02-14T14:56:06.093Z,57.40
2019-02-14T14:58:35.400Z,57.80
2019-02-14T15:01:04.924Z,59.70
2019-02-14T15:03:34.435Z,61.30
2019-02-14T15:06:03.901Z,64.80
2019-02-14T15:08:33.703Z,69.00
2019-02-14T15:11:03.030Z,69.30
2019-02-14T15:13:32.659Z,68.70
2019-02-14T15:16:05.153Z,70.40
2019-02-14T15:18:34.486Z,72.40
2019-02-14T15:21:03.814Z,73.80
2019-02-14T15:23:33.116Z,76.30
2019-02-14T15:26:04.204Z,76.90
2019-02-14T15:28:33.635Z,78.80
2019-02-14T15:31:02.935Z,80.30
2019-02-14T15:33:32.331Z,82.80
2019-02-14T15:36:01.704Z,84.50
2019-02-14T15:38:32.258Z,85.90
2019-02-14T15:41:02.048Z,86.70
2019-02-14T15:43:31.358Z,87.30
2019-02-14T15:46:00.672Z,88.50
2019-02-14T15:48:29.977Z,90.30
2019-02-14T15:50:59.320Z,90.70
2019-02-14T15:53:28.711Z,91.10
2019-02-14T15:55:58.043Z,91.40
2019-02-14T15:58:28.630Z,92.10
2019-02-14T16:00:58.708Z,92.90
2019-02-14T16:03:28.032Z,93.10
2019-02-14T16:05:57.351Z,93.80
2019-02-14T16:08:26.659Z,94.50
2019-02-14T16:10:56.071Z,94.90
2019-02-14T16:13:25.492Z,95.20
2019-02-14T16:15:56.638Z,95.80
2019-02-14T16:18:26.287Z,96.30
2019-02-14T16:20:55.606Z,97.40
2019-02-14T16:23:25.102Z,98.10
2019-02-14T16:25:57.967Z,98.50
2019-02-14T16:28:27.338Z,98.10
2019-02-14T16:30:56.959Z,98.60
2019-02-14T16:33:26.380Z,98.80
2019-02-14T16:35:56.227Z,99.40
2019-02-14T16:38:25.634Z,99.70
2019-02-14T16:40:54.948Z,99.90
2019-02-14T16:43:24.272Z,99.90
2019-02-14T16:45:53.573Z,99.90
2019-02-14T16:48:22.912Z,99.90
2019-02-14T16:50:52.195Z,99.90
2019-02-14T16:53:21.829Z,99.90
2019-02-14T16:55:51.240Z,99.90
2019-02-14T16:58:20.879Z,99.90
2019-02-14T17:00:50.217Z,99.90
2019-02-14T17:03:20.022Z,99.90
2019-02-14T17:05:49.353Z,99.90
2019-02-14T17:08:18.679Z,99.90
2019-02-14T17:10:48.082Z,99.90
2019-02-14T17:13:17.424Z,99.90
2019-02-14T17:15:47.182Z,99.90
2019-02-14T17:18:16.546Z,99.90
2019-02-14T17:20:45.964Z,99.90
2019-02-14T17:23:15.280Z,99.90
2019-02-14T17:25:44.643Z,99.90
2019-02-14T17:28:13.923Z,99.90
2019-02-14T17:30:43.286Z,99.90
2019-02-14T17:33:12.644Z,99.90
2019-02-14T17:35:42.140Z,99.90
2019-02-14T17:38:11.593Z,99.90
2019-02-14T17:40:45.990Z,99.90
2019-02-14T17:43:12.048Z,99.90
2019-02-14T17:45:41.400Z,99.90
2019-02-14T17:48:10.759Z,99.90
2019-02-14T17:50:40.080Z,99.90
2019-02-14T17:53:09.756Z,99.90
2019-02-14T17:55:39.462Z,99.90
2019-02-14T17:58:08.796Z,99.90
2019-02-14T18:00:39.290Z,99.90
2019-02-14T18:03:08.594Z,99.90
2019-02-14T18:05:37.940Z,99.90
2019-02-14T18:08:07.315Z,99.90
2019-02-14T18:10:36.658Z,99.90
2019-02-14T18:13:05.936Z,99.90
2019-02-14T18:15:35.254Z,99.90
2019-02-14T18:18:04.559Z,99.90
2019-02-14T18:20:35.080Z,99.90
2019-02-14T18:23:04.372Z,99.90
2019-02-14T18:25:33.700Z,99.90
2019-02-14T18:28:03.137Z,99.90
2019-02-14T18:30:33.536Z,99.90
2019-02-14T18:33:02.865Z,99.90
2019-02-14T18:35:32.219Z,99.90
2019-02-14T18:38:01.847Z,99.90
2019-02-14T18:40:31.121Z,99.90
2019-02-14T18:43:00.533Z,99.90
2019-02-14T18:45:29.902Z,99.90
2019-02-14T18:47:59.256Z,99.90
2019-02-14T18:50:28.567Z,99.90
2019-02-14T18:52:58.032Z,99.90
2019-02-14T18:55:27.364Z,99.90
2019-02-14T18:57:56.706Z,99.90
2019-02-14T19:00:26.074Z,99.90
2019-02-14T19:02:55.396Z,99.90
2019-02-14T19:05:25.104Z,99.90
2019-02-14T19:07:54.451Z,99.90
2019-02-14T19:10:23.765Z,99.90
2019-02-14T19:12:53.169Z,99.90
2019-02-14T19:15:23.031Z,99.90
2019-02-14T19:17:52.686Z,99.90
2019-02-14T19:20:22.333Z,99.90
2019-02-14T19:22:51.623Z,99.90
2019-02-14T19:25:20.936Z,99.90
2019-02-14T19:27:50.226Z,99.90
2019-02-14T19:30:19.823Z,99.90
2019-02-14T19:32:49.581Z,99.90
2019-02-14T19:35:23.015Z,99.90
2019-02-14T19:37:49.944Z,99.90
2019-02-14T19:40:19.259Z,99.90
2019-02-14T19:42:48.695Z,99.90
2019-02-14T19:45:18.115Z,99.90
2019-02-14T19:47:47.434Z,99.90
2019-02-14T19:50:16.738Z,99.90
2019-02-14T19:52:46.156Z,99.90
2019-02-14T19:55:15.571Z,99.90
2019-02-14T19:57:44.960Z,99.90
2019-02-14T20:00:14.546Z,99.90
2019-02-14T20:02:43.888Z,99.90
2019-02-14T20:05:13.393Z,99.90
2019-02-14T20:07:44.577Z,99.90
2019-02-14T20:10:14.075Z,99.90
2019-02-14T20:12:43.902Z,99.90
2019-02-14T20:15:14.504Z,99.90
2019-02-14T20:17:43.797Z,99.90
2019-02-14T20:20:13.213Z,99.90
2019-02-14T20:22:42.580Z,99.90
2019-02-14T20:25:13.357Z,99.90
2019-02-14T20:27:42.872Z,99.90
2019-02-14T20:30:12.278Z,99.90
2019-02-14T20:32:41.657Z,99.90
2019-02-14T20:35:11.018Z,99.90
2019-02-14T20:37:40.417Z,99.90
2019-02-14T20:40:09.742Z,99.90
2019-02-14T20:42:39.102Z,99.90
2019-02-14T20:45:09.344Z,99.90
2019-02-14T20:47:38.769Z,99.90
2019-02-14T20:50:10.012Z,99.90
2019-02-14T20:52:39.318Z,99.90
2019-02-14T20:55:10.770Z,99.90
2019-02-14T20:57:40.430Z,99.90
2019-02-14T21:00:17.149Z,99.90
2019-02-14T21:02:46.584Z,99.90
2019-02-14T21:05:16.332Z,99.90
2019-02-14T21:07:45.765Z,99.90
2019-02-14T21:10:15.121Z,99.90
2019-02-14T21:12:46.389Z,99.90
2019-02-14T21:15:15.691Z,99.90
2019-02-14T21:17:45.242Z,99.90
2019-02-14T21:20:14.734Z,99.90
2019-02-14T21:22:44.245Z,99.90
2019-02-14T21:25:14.088Z,99.90
2019-02-14T21:27:43.519Z,99.90
2019-02-14T21:30:13.959Z,99.90
2019-02-14T21:32:43.447Z,99.90
2019-02-14T21:35:12.814Z,99.90
2019-02-14T21:37:42.925Z,99.90
2019-02-14T21:40:12.965Z,99.90
2019-02-14T21:42:42.737Z,99.90
2019-02-14T21:45:12.853Z,99.90
2019-02-14T21:47:42.256Z,99.90
2019-02-14T21:50:11.868Z,99.90
2019-02-14T21:52:41.654Z,99.90
2019-02-14T21:55:11.314Z,99.90
2019-02-14T21:57:40.928Z,99.90
2019-02-14T22:00:13.976Z,99.90
2019-02-14T22:02:44.149Z,99.90
2019-02-14T22:05:13.561Z,99.90
2019-02-14T22:07:43.038Z,99.90
2019-02-14T22:10:12.410Z,99.90
2019-02-14T22:12:43.265Z,99.90
2019-02-14T22:15:14.341Z,99.90
2019-02-14T22:17:43.818Z,99.90
2019-02-14T22:20:14.761Z,99.90
2019-02-14T22:22:44.094Z,99.90
2019-02-14T22:25:13.923Z,99.90
2019-02-14T22:27:43.248Z,99.90
2019-02-14T22:30:15.205Z,99.90
2019-02-14T22:32:46.309Z,99.90
2019-02-14T22:35:15.704Z,99.90
2019-02-14T22:37:45.025Z,99.90
2019-02-14T22:40:14.613Z,99.90
2019-02-14T22:42:47.674Z,99.90
2019-02-14T22:45:15.343Z,99.90
2019-02-14T22:47:45.423Z,99.90
2019-02-14T22:50:14.923Z,99.90
2019-02-14T22:52:44.248Z,99.90
2019-02-14T22:55:13.605Z,99.90
2019-02-14T22:57:42.970Z,99.90
2019-02-14T23:00:43.856Z,99.90
2019-02-14T23:03:13.188Z,99.90
2019-02-14T23:05:42.536Z,99.90
2019-02-14T23:08:12.161Z,99.90
2019-02-14T23:10:41.498Z,99.90
2019-02-14T23:13:10.877Z,99.90
2019-02-14T23:15:40.696Z,99.90
2019-02-14T23:18:10.327Z,99.90
2019-02-14T23:20:39.668Z,99.90
2019-02-14T23:23:11.162Z,99.90
2019-02-14T23:25:40.499Z,99.90
2019-02-14T23:28:09.868Z,99.90
2019-02-14T23:30:39.516Z,99.90
2019-02-14T23:33:08.816Z,99.90
2019-02-14T23:35:38.216Z,99.90
2019-02-14T23:38:07.618Z,99.90
2019-02-14T23:40:37.224Z,99.90
2019-02-14T23:43:07.428Z,99.90
2019-02-14T23:45:36.896Z,99.90
2019-02-14T23:48:06.355Z,99.90
2019-02-14T23:50:35.756Z,99.90
2019-02-14T23:53:05.066Z,99.90
2019-02-14T23:55:34.457Z,99.90
2019-02-14T23:58:04.135Z,99.90
